createdAt,value
2023-03-22T00:00:15.456Z,29.58
2023-03-22T00:02:42.872Z,27.95
2023-03-22T00:05:10.062Z,30.05
2023-03-22T00:07:37.687Z,26.17
2023-03-22T00:10:05.782Z,27.30
2023-03-22T00:12:32.899Z,31.08
2023-03-22T00:15:00.187Z,30.00
2023-03-22T00:17:27.309Z,29.52
2023-03-22T00:19:54.581Z,29.75
2023-03-22T00:22:21.811Z,31.67
2023-03-22T00:24:48.926Z,31.05
2023-03-22T00:27:16.051Z,29.63
2023-03-22T00:29:43.141Z,31.98
2023-03-22T00:32:10.416Z,28.88
2023-03-22T00:34:37.501Z,32.15
2023-03-22T00:37:04.610Z,29.15
2023-03-22T00:39:32.194Z,32.03
2023-03-22T00:41:59.636Z,31.52
2023-03-22T00:44:26.996Z,32.92
2023-03-22T00:46:54.058Z,30.42
2023-03-22T00:49:21.855Z,29.75
2023-03-22T00:51:49.090Z,28.50
2023-03-22T00:54:17.358Z,31.88
2023-03-22T00:56:49.773Z,28.13
2023-03-22T00:59:17.433Z,29.37
2023-03-22T01:01:44.593Z,30.50
2023-03-22T01:04:17.837Z,36.85
2023-03-22T01:06:47.014Z,27.88
2023-03-22T01:09:14.988Z,28.52
2023-03-22T01:11:43.741Z,32.97
2023-03-22T01:14:13.705Z,29.08
2023-03-22T01:16:40.925Z,29.65
2023-03-22T01:19:08.388Z,32.97
2023-03-22T01:21:35.545Z,25.63
2023-03-22T01:24:03.372Z,30.05
2023-03-22T01:26:30.525Z,23.90
2023-03-22T01:28:57.642Z,29.13
2023-03-22T01:31:25.127Z,27.33
2023-03-22T01:33:52.437Z,28.25
2023-03-22T01:36:21.899Z,26.80
2023-03-22T01:38:49.018Z,21.70
2023-03-22T01:41:17.284Z,25.15
2023-03-22T01:43:45.308Z,26.40
2023-03-22T01:46:12.455Z,23.00
2023-03-22T01:48:47.249Z,22.52
2023-03-22T01:51:20.514Z,22.90
2023-03-22T01:54:09.878Z,22.10
2023-03-22T01:56:40.636Z,24.27
2023-03-22T01:59:14.261Z,24.00
2023-03-22T02:02:00.244Z,21.52
2023-03-22T02:04:34.323Z,22.73
2023-03-22T02:07:15.172Z,22.42
2023-03-22T02:09:44.083Z,21.08
2023-03-22T02:12:26.669Z,22.50
2023-03-22T02:15:21.592Z,21.20
2023-03-22T02:18:30.408Z,19.80
2023-03-22T02:21:37.825Z,22.25
2023-03-22T02:24:35.189Z,22.90
2023-03-22T02:27:16.192Z,20.83
2023-03-22T02:29:58.463Z,20.35
2023-03-22T02:32:28.538Z,24.75
2023-03-22T02:35:17.637Z,18.23
2023-03-22T02:37:47.725Z,18.05
2023-03-22T02:40:17.950Z,18.38
2023-03-22T02:43:03.200Z,18.20
2023-03-22T02:45:34.830Z,14.73
2023-03-22T02:48:12.698Z,17.45
2023-03-22T02:51:21.488Z,18.15
2023-03-22T02:53:57.490Z,17.52
2023-03-22T02:56:34.422Z,18.42
2023-03-22T02:59:04.476Z,16.73
2023-03-22T03:01:38.040Z,17.63
2023-03-22T03:04:09.742Z,17.85
2023-03-22T03:06:41.316Z,17.50
2023-03-22T03:09:08.767Z,18.80
2023-03-22T03:11:36.554Z,17.98
2023-03-22T03:14:04.865Z,19.63
2023-03-22T03:16:36.748Z,17.10
2023-03-22T03:19:20.278Z,18.13
2023-03-22T03:21:54.048Z,17.92
2023-03-22T03:24:28.018Z,16.92
2023-03-22T03:27:07.191Z,17.85
2023-03-22T03:29:37.538Z,19.17
2023-03-22T03:32:17.215Z,18.23
2023-03-22T03:34:57.223Z,19.42
2023-03-22T03:37:41.417Z,16.50
2023-03-22T03:40:17.958Z,16.88
2023-03-22T03:42:51.912Z,18.60
2023-03-22T03:45:22.116Z,20.65
2023-03-22T03:47:56.835Z,18.38
2023-03-22T03:50:25.823Z,20.55
2023-03-22T03:52:54.774Z,17.17
2023-03-22T03:55:23.596Z,20.67
2023-03-22T03:57:50.931Z,19.40
2023-03-22T04:00:19.111Z,19.20
2023-03-22T04:03:09.480Z,19.60
2023-03-22T04:06:00.118Z,19.55
2023-03-22T04:08:29.670Z,20.77
2023-03-22T04:10:57.434Z,17.13
2023-03-22T04:13:25.152Z,21.33
2023-03-22T04:15:57.366Z,20.90
2023-03-22T04:18:24.863Z,19.55
2023-03-22T04:20:53.614Z,20.15
2023-03-22T04:23:22.593Z,20.30
2023-03-22T04:25:50.735Z,18.35
2023-03-22T04:28:26.455Z,24.08
2023-03-22T04:30:54.233Z,20.17
2023-03-22T04:33:40.467Z,18.70
2023-03-22T04:36:19.659Z,22.55
2023-03-22T04:39:14.519Z,21.85
2023-03-22T04:41:47.265Z,20.45
2023-03-22T04:44:14.543Z,23.15
2023-03-22T04:46:49.996Z,21.33
2023-03-22T04:49:17.738Z,21.83
2023-03-22T04:51:44.915Z,21.35
2023-03-22T04:54:23.894Z,22.10
2023-03-22T04:56:51.314Z,21.48
2023-03-22T04:59:21.877Z,20.02
2023-03-22T05:01:51.430Z,20.48
2023-03-22T05:04:22.680Z,20.27
2023-03-22T05:06:55.596Z,21.42
2023-03-22T05:09:30.278Z,20.85
2023-03-22T05:11:58.077Z,23.38
2023-03-22T05:14:39.303Z,21.13
2023-03-22T05:17:07.965Z,21.42
2023-03-22T05:19:38.821Z,21.85
2023-03-22T05:22:06.082Z,18.83
2023-03-22T05:24:43.005Z,17.52
2023-03-22T05:27:14.698Z,18.67
2023-03-22T05:29:44.795Z,22.33
2023-03-22T05:32:19.605Z,22.00
2023-03-22T05:34:48.389Z,19.40
2023-03-22T05:37:24.407Z,21.38
2023-03-22T05:39:54.870Z,21.85
2023-03-22T05:42:27.094Z,21.40
2023-03-22T05:44:54.231Z,24.20
2023-03-22T05:47:22.099Z,21.63
2023-03-22T05:49:57.747Z,25.90
2023-03-22T05:52:26.987Z,21.52
2023-03-22T05:55:30.278Z,19.98
2023-03-22T05:58:01.921Z,21.90
2023-03-22T06:00:35.759Z,21.95
2023-03-22T06:03:25.643Z,18.83
2023-03-22T06:05:58.369Z,21.30
2023-03-22T06:08:39.337Z,22.73
2023-03-22T06:11:07.481Z,19.40
2023-03-22T06:13:35.990Z,43.58
2023-03-22T06:16:04.389Z,24.65
2023-03-22T06:18:33.021Z,17.85
2023-03-22T06:21:07.334Z,17.20
2023-03-22T06:23:34.460Z,18.90
2023-03-22T06:26:01.521Z,16.73
2023-03-22T06:28:30.293Z,15.70
2023-03-22T06:31:06.444Z,15.45
2023-03-22T06:33:40.876Z,17.35
2023-03-22T06:36:23.330Z,14.00
2023-03-22T06:39:06.599Z,13.23
2023-03-22T06:41:34.264Z,15.32
2023-03-22T06:44:02.819Z,13.82
2023-03-22T06:46:49.844Z,13.35
2023-03-22T06:49:52.523Z,14.85
2023-03-22T06:52:24.869Z,19.05
2023-03-22T06:54:52.405Z,17.65
2023-03-22T06:57:20.132Z,14.35
2023-03-22T06:59:47.533Z,16.73
2023-03-22T07:02:14.743Z,14.68
2023-03-22T07:04:53.327Z,14.68
2023-03-22T07:07:20.577Z,14.80
2023-03-22T07:09:47.955Z,17.15
2023-03-22T07:12:15.416Z,16.25
2023-03-22T07:14:42.792Z,18.90
2023-03-22T07:17:22.704Z,20.75
2023-03-22T07:19:49.804Z,26.15
2023-03-22T07:22:17.394Z,21.20
2023-03-22T07:24:56.189Z,23.58
2023-03-22T07:27:26.373Z,21.38
2023-03-22T07:29:54.126Z,21.65
2023-03-22T07:32:21.833Z,19.25
2023-03-22T07:34:57.890Z,23.98
2023-03-22T07:37:25.638Z,21.15
2023-03-22T07:39:52.954Z,19.63
2023-03-22T07:42:20.512Z,23.08
2023-03-22T07:45:06.908Z,22.80
2023-03-22T07:47:43.198Z,21.67
2023-03-22T07:50:36.004Z,21.95
2023-03-22T07:53:05.813Z,21.55
2023-03-22T07:55:32.968Z,23.38
2023-03-22T07:58:00.109Z,23.17
2023-03-22T08:00:27.745Z,21.08
2023-03-22T08:03:15.348Z,22.90
2023-03-22T08:06:07.723Z,27.52
2023-03-22T08:08:37.298Z,26.90
2023-03-22T08:11:06.558Z,34.20
2023-03-22T08:13:34.303Z,32.25
2023-03-22T08:16:01.672Z,33.08
2023-03-22T08:18:30.511Z,31.95
2023-03-22T08:21:00.338Z,36.83
2023-03-22T08:23:40.852Z,36.15
2023-03-22T08:26:27.728Z,40.78
2023-03-22T08:28:57.192Z,31.52
2023-03-22T08:31:24.383Z,31.98
2023-03-22T08:33:51.622Z,30.08
2023-03-22T08:36:22.873Z,28.65
2023-03-22T08:38:58.063Z,30.90
2023-03-22T08:41:37.338Z,31.35
2023-03-22T08:44:05.288Z,31.65
2023-03-22T08:46:35.193Z,35.05
2023-03-22T08:49:03.373Z,32.55
2023-03-22T08:51:35.748Z,34.13
2023-03-22T08:54:17.129Z,38.58
2023-03-22T08:56:53.617Z,33.80
2023-03-22T08:59:40.076Z,33.45
2023-03-22T09:02:33.158Z,26.75
2023-03-22T09:05:01.141Z,27.30
2023-03-22T09:07:28.364Z,29.33
2023-03-22T09:10:04.753Z,25.83
2023-03-22T09:12:35.729Z,32.65
2023-03-22T09:15:04.194Z,28.40
2023-03-22T09:17:31.780Z,24.20
2023-03-22T09:20:11.554Z,24.85
2023-03-22T09:22:41.828Z,23.95
2023-03-22T09:25:12.663Z,27.15
2023-03-22T09:27:42.399Z,24.30
2023-03-22T09:30:10.202Z,27.85
2023-03-22T09:32:41.034Z,23.05
2023-03-22T09:35:10.912Z,21.52
2023-03-22T09:37:53.416Z,21.92
2023-03-22T09:40:27.666Z,23.02
2023-03-22T09:43:00.613Z,22.08
2023-03-22T09:45:38.519Z,25.67
2023-03-22T09:48:12.266Z,27.20
2023-03-22T09:50:46.736Z,25.15
2023-03-22T09:53:16.475Z,24.48
2023-03-22T09:55:48.719Z,30.35
2023-03-22T09:58:26.026Z,26.30
2023-03-22T10:01:01.236Z,25.63
2023-03-22T10:04:16.735Z,26.50
2023-03-22T10:06:49.870Z,28.42
2023-03-22T10:10:03.384Z,27.30
2023-03-22T10:13:00.212Z,28.97
2023-03-22T10:15:49.873Z,24.25
2023-03-22T10:18:22.012Z,27.45
2023-03-22T10:20:58.811Z,27.50
2023-03-22T10:23:44.129Z,25.10
2023-03-22T10:26:21.635Z,24.88
2023-03-22T10:29:01.559Z,27.35
2023-03-22T10:31:31.284Z,30.15
2023-03-22T10:34:05.345Z,23.25
2023-03-22T10:36:37.022Z,26.60
2023-03-22T10:44:13.710Z,24.17
2023-03-22T10:46:42.261Z,24.35
2023-03-22T10:49:20.278Z,22.90
2023-03-22T10:55:18.116Z,26.52
2023-03-22T10:57:56.154Z,22.90
2023-03-22T11:00:24.926Z,21.90
2023-03-22T11:02:58.341Z,20.85
2023-03-22T11:05:28.597Z,21.85
2023-03-22T11:08:00.643Z,24.15
2023-03-22T11:10:35.657Z,23.45
2023-03-22T11:13:11.775Z,21.80
2023-03-22T11:15:51.616Z,22.27
2023-03-22T11:18:19.905Z,20.80
2023-03-22T11:20:58.559Z,23.25
2023-03-22T11:23:28.437Z,21.98
2023-03-22T11:25:59.196Z,20.85
2023-03-22T11:28:27.849Z,22.23
2023-03-22T11:31:02.236Z,22.30
2023-03-22T11:33:29.970Z,24.05
2023-03-22T11:35:59.776Z,21.65
2023-03-22T11:38:31.998Z,19.42
2023-03-22T11:41:02.337Z,17.92
2023-03-22T11:43:55.804Z,15.63
2023-03-22T11:46:23.958Z,13.73
2023-03-22T11:48:57.690Z,13.18
2023-03-22T11:51:30.400Z,15.02
2023-03-22T11:54:06.825Z,16.08
2023-03-22T11:56:34.714Z,14.73
2023-03-22T11:59:14.346Z,19.40
2023-03-22T12:02:13.960Z,16.85
2023-03-22T12:04:44.393Z,18.95
2023-03-22T12:07:17.366Z,17.40
2023-03-22T12:09:51.179Z,15.35
2023-03-22T12:16:07.981Z,16.00
2023-03-22T12:19:17.521Z,15.13
2023-03-22T12:21:50.125Z,17.85
2023-03-22T12:24:30.263Z,13.90
2023-03-22T12:27:28.068Z,10.48
2023-03-22T12:30:01.089Z,13.18
2023-03-22T12:32:36.761Z,7.47
2023-03-22T12:35:16.666Z,16.35
2023-03-22T12:37:48.145Z,8.30
2023-03-22T12:40:31.798Z,11.20
2023-03-22T12:43:07.725Z,12.85
2023-03-22T12:45:41.335Z,8.90
2023-03-22T12:48:18.938Z,9.25
2023-03-22T12:50:56.619Z,12.85
2023-03-22T12:53:30.644Z,11.18
2023-03-22T12:55:58.762Z,12.20
2023-03-22T12:58:26.822Z,12.48
2023-03-22T13:01:01.211Z,15.73
2023-03-22T13:03:38.386Z,8.05
2023-03-22T13:06:27.213Z,7.30
2023-03-22T13:09:16.232Z,10.38
2023-03-22T13:11:46.380Z,8.05
2023-03-22T13:14:56.224Z,8.40
2023-03-22T13:17:23.334Z,8.02
2023-03-22T13:20:00.240Z,9.05
2023-03-22T13:22:36.749Z,7.75
2023-03-22T13:25:13.487Z,8.27
2023-03-22T13:27:51.429Z,9.55
2023-03-22T13:30:21.716Z,7.40
2023-03-22T13:32:56.412Z,9.85
2023-03-22T13:35:44.258Z,11.63
2023-03-22T13:38:31.440Z,7.47
2023-03-22T13:41:32.900Z,8.50
2023-03-22T13:51:33.482Z,5.90
2023-03-22T13:54:13.277Z,4.70
2023-03-22T13:57:01.339Z,5.53
2023-03-22T13:59:33.685Z,4.13
2023-03-22T14:02:16.261Z,5.80
2023-03-22T14:04:57.174Z,5.22
2023-03-22T14:07:29.176Z,4.70
2023-03-22T14:10:32.296Z,5.00
2023-03-22T14:13:05.600Z,5.82
2023-03-22T14:15:38.748Z,4.63
2023-03-22T14:20:38.100Z,4.95
